»·PEaware :: N391SL KCRQ-KSBA

N391SL :: KCRQ-KSBA

FLIGHT INFORMATION

Flight Status: Arrived
Operator: Privately registered:
United States
More flights under this callsign
Pilot: Sanjiv Singh (4490)
Aircraft: BEECH AIRCRAFT BARON
(BE58)
More flights by this aircraft type
Origin: KCRQ McClellan-Palomar
United States
Destination: KSBA Santa Barbara Mun
United States
More flights between these airports :: More routes between these airports
Route: OCN V23 LAX V299 VTU VTU282R KWANG
File this flight plan on PilotEdge
Remarks: TEC route SANN35
Altitude:
(Current/Filed)
6,000ft
Speed:
(Current/Filed)
160kts
Departed: 15-Nov-16 08:58 AM
Arrived: 15-Nov-16 09:55 AM
Distance/Time
Traveled:
149nm/0:57
Distance/Time
To Go:
Arrived

Flight Plot

Page will automatically refresh every two minutes.

Filed plans courtesy of Ian Elchitz and SimRoutes.com


Map Options




Map Legend


Flown Route
Filed Route
Departure Airport
Arrival Airport
Navaid (VOR, NDB)
Fix

Horizontal Profiles

Position Reports

Time Latitude Longitude Heading Altitude Ground
Speed
15-Nov-16 08:31 33.127322 -117.274598 256 334ft 0kts
15-Nov-16 08:32 33.127322 -117.274598 256 334ft 0kts
15-Nov-16 08:33 33.127322 -117.274598 256 334ft 0kts
15-Nov-16 08:34 33.127322 -117.274598 256 334ft 0kts
15-Nov-16 08:35 33.127322 -117.274598 256 334ft 0kts
15-Nov-16 08:36 33.127322 -117.274598 256 334ft 0kts
15-Nov-16 08:37 33.127322 -117.274598 256 334ft 0kts
15-Nov-16 08:38 33.127322 -117.274598 256 334ft 0kts
15-Nov-16 08:39 33.127322 -117.274598 256 334ft 0kts
15-Nov-16 08:40 33.127322 -117.274598 256 334ft 0kts
15-Nov-16 08:41 33.127322 -117.274598 256 334ft 0kts
15-Nov-16 08:42 33.127322 -117.274598 256 334ft 0kts
15-Nov-16 08:43 33.127322 -117.274598 256 334ft 0kts
15-Nov-16 08:44 33.127322 -117.274598 256 334ft 0kts
15-Nov-16 08:45 33.127322 -117.274598 256 334ft 0kts
15-Nov-16 08:46 33.127322 -117.274598 256 334ft 0kts
15-Nov-16 08:47 33.127319 -117.274611 256 334ft 1kts
15-Nov-16 08:48 33.127909 -117.275119 348 334ft 2kts
15-Nov-16 08:49 33.128384 -117.274143 78 334ft 11kts
15-Nov-16 08:50 33.128719 -117.272697 41 334ft 0kts
15-Nov-16 08:51 33.129139 -117.272186 40 334ft 11kts
15-Nov-16 08:52 33.126993 -117.287530 256 483ft 131kts
15-Nov-16 08:53 33.122121 -117.331142 265 2123ft 139kts
15-Nov-16 08:54 33.118374 -117.379424 263 2781ft 168kts
15-Nov-16 08:55 33.133518 -117.420949 0 3478ft 147kts
15-Nov-16 08:56 33.173796 -117.416530 359 3942ft 149kts
15-Nov-16 08:57 33.211764 -117.417204 359 4731ft 130kts
15-Nov-16 08:58 33.244833 -117.422407 317 5667ft 122kts
15-Nov-16 08:59 33.272166 -117.454607 316 5835ft 156kts
15-Nov-16 09:00 33.306098 -117.494395 316 5829ft 180kts
15-Nov-16 09:01 33.342453 -117.537142 316 5826ft 185kts
15-Nov-16 09:02 33.379496 -117.580780 316 5826ft 186kts
15-Nov-16 09:03 33.416221 -117.624090 316 5825ft 186kts
15-Nov-16 09:04 33.452448 -117.667460 314 5823ft 185kts
15-Nov-16 09:05 33.491819 -117.706736 319 5820ft 184kts
15-Nov-16 09:06 33.528327 -117.746629 316 5818ft 183kts
15-Nov-16 09:07 33.558619 -117.782029 315 5817ft 183kts
15-Nov-16 09:08 33.594089 -117.824504 314 5817ft 183kts
15-Nov-16 09:09 33.629454 -117.867327 314 5817ft 183kts
15-Nov-16 09:10 33.662991 -117.908095 314 5817ft 183kts
15-Nov-16 09:11 33.693414 -117.945234 315 5816ft 186kts
15-Nov-16 09:12 33.723812 -117.982239 315 5817ft 190kts
15-Nov-16 09:13 33.757057 -118.022738 315 5817ft 192kts
15-Nov-16 09:14 33.787402 -118.068470 284 5822ft 193kts
15-Nov-16 09:15 33.800240 -118.128186 284 5818ft 195kts
15-Nov-16 09:16 33.813307 -118.190229 286 5829ft 193kts
15-Nov-16 09:17 33.828233 -118.248424 290 5819ft 185kts
15-Nov-16 09:18 33.844954 -118.304711 290 5820ft 184kts
15-Nov-16 09:19 33.866288 -118.357261 316 5822ft 183kts
15-Nov-16 09:20 33.901495 -118.396779 317 5820ft 183kts
15-Nov-16 09:21 33.937202 -118.438249 297 5810ft 182kts
15-Nov-16 09:22 33.952082 -118.495355 291 5823ft 182kts
15-Nov-16 09:23 33.970225 -118.552405 291 5824ft 183kts
15-Nov-16 09:24 33.988123 -118.609730 291 5825ft 183kts
15-Nov-16 09:25 34.005789 -118.667049 290 5828ft 183kts
15-Nov-16 09:26 34.023495 -118.724505 290 5829ft 183kts
15-Nov-16 09:27 34.041138 -118.781853 291 5831ft 182kts
15-Nov-16 09:28 34.057781 -118.839285 291 5833ft 182kts
15-Nov-16 09:29 34.074375 -118.897324 290 5833ft 183kts
15-Nov-16 09:30 34.089819 -118.954697 290 5996ft 177kts
15-Nov-16 09:31 34.105151 -119.012197 290 6018ft 184kts
15-Nov-16 09:32 34.122914 -119.070297 299 6017ft 186kts
15-Nov-16 09:33 34.146574 -119.126194 299 6013ft 187kts
15-Nov-16 09:34 34.170002 -119.182479 298 6011ft 187kts
15-Nov-16 09:35 34.193134 -119.238502 298 6010ft 186kts
15-Nov-16 09:36 34.216260 -119.294722 298 6009ft 186kts
15-Nov-16 09:37 34.239255 -119.350799 298 6009ft 186kts
15-Nov-16 09:38 34.262408 -119.407316 298 5638ft 188kts
15-Nov-16 09:39 34.284706 -119.461945 297 4310ft 177kts
15-Nov-16 09:40 34.303640 -119.509334 296 3948ft 128kts
15-Nov-16 09:41 34.320893 -119.545475 300 3557ft 133kts
15-Nov-16 09:42 34.339964 -119.589846 297 2484ft 165kts
15-Nov-16 09:43 34.359086 -119.637750 295 1989ft 135kts
15-Nov-16 09:44 34.375688 -119.680732 294 1995ft 155kts
15-Nov-16 09:45 34.395228 -119.730813 295 1738ft 163kts
15-Nov-16 09:46 34.411325 -119.772093 300 777ft 114kts
15-Nov-16 09:47 34.426628 -119.804197 284 659ft 104kts
15-Nov-16 09:48 34.427742 -119.838813 266 19ft 87kts
15-Nov-16 09:49 34.428406 -119.845495 63 16ft 0kts
15-Nov-16 09:50 34.428964 -119.844107 64 16ft 14kts
15-Nov-16 09:51 34.431116 -119.838340 71 16ft 13kts
15-Nov-16 09:52 34.432476 -119.833699 75 16ft 4kts
15-Nov-16 09:53 34.431060 -119.833368 85 16ft 0kts
15-Nov-16 09:54 34.431060 -119.833368 85 16ft 0kts
15-Nov-16 09:55 34.431060 -119.833368 85 16ft 0kts
15-Nov-16 09:56 34.431060 -119.833368 85 16ft 0kts
15-Nov-16 09:57 34.431060 -119.833368 85 16ft 0kts

Navigation Log

Ident Type Via Name
1. KCRQ Airport Direct Carlsbad / Mcclellan-Palomar
2. OCN Navaid Direct Oceanside (115.30)
3. KELPS Fix V23
4. DANAH Fix V23
5. KRAUZ Fix V23
6. BALBO Fix V23
7. MIDDS Fix V23
8. SLI Navaid V23 Seal Beach Los Alamitos (115.70)
9. POPPR Fix V23
10. HERMO Fix V23
11. LAX Navaid V23 Los Angeles (113.60)
12. SADDE Fix V299
13. VTU Navaid V299 Ventura Oxnard (108.20)
14. KWANG Fix Direct
15. KSBA Airport Direct Santa Barbara Muni